createdAt,value
2019-01-31T00:04:41.935Z,23.1
2019-01-31T00:09:47.461Z,23.1
2019-01-31T00:14:53.280Z,23.1
2019-01-31T00:19:58.772Z,23
2019-01-31T00:25:04.398Z,23
2019-01-31T00:30:10.925Z,23
2019-01-31T00:35:16.615Z,23
2019-01-31T00:40:21.941Z,23
2019-01-31T00:45:27.443Z,23
2019-01-31T00:50:33.530Z,22.9
2019-01-31T00:55:38.632Z,23
2019-01-31T01:00:43.678Z,22.9
2019-01-31T01:05:48.676Z,22.9
2019-01-31T01:10:54.325Z,22.9
2019-01-31T01:16:00.098Z,22.9
2019-01-31T01:21:05.393Z,22.9
2019-01-31T01:26:10.962Z,22.9
2019-01-31T01:31:15.678Z,22.9
2019-01-31T01:36:20.650Z,22.9
2019-01-31T01:46:29.830Z,22.9
2019-01-31T01:51:34.996Z,22.8
2019-01-31T01:56:41.121Z,22.8
2019-01-31T02:01:46.630Z,22.8
2019-01-31T02:06:51.767Z,22.8
2019-01-31T02:11:57.464Z,22.8
2019-01-31T02:17:03.004Z,22.8
2019-01-31T02:22:08.258Z,22.8
2019-01-31T02:27:13.765Z,22.8
2019-01-31T02:32:19.310Z,22.8
2019-01-31T02:37:24.713Z,22.8
2019-01-31T02:42:29.994Z,22.8
2019-01-31T02:47:35.355Z,22.8
2019-01-31T02:52:39.873Z,22.7
2019-01-31T02:57:45.556Z,22.7
2019-01-31T03:02:50.839Z,22.7
2019-01-31T03:07:56.824Z,22.7
2019-01-31T03:13:02.518Z,22.6
2019-01-31T03:18:08.259Z,22.7
2019-01-31T03:23:12.588Z,22.7
2019-01-31T03:28:18.567Z,22.6
2019-01-31T03:38:29.209Z,22.6
2019-01-31T03:43:34.962Z,22.6
2019-01-31T03:48:40.249Z,22.6
2019-01-31T03:53:45.514Z,22.6
2019-01-31T03:58:51.448Z,22.6
2019-01-31T04:03:56.717Z,22.5
2019-01-31T04:09:02.025Z,22.6
2019-01-31T04:14:07.177Z,22.6
2019-01-31T04:19:12.129Z,22.6
2019-01-31T04:24:17.867Z,22.6
2019-01-31T04:29:23.506Z,22.6
2019-01-31T04:34:29.511Z,22.5
2019-01-31T04:39:34.412Z,22.5
2019-01-31T04:44:40.243Z,22.5
2019-01-31T04:49:45.230Z,22.5
2019-01-31T04:54:51.605Z,22.6
2019-01-31T04:59:57.278Z,22.6
2019-01-31T05:05:03.021Z,22.7
2019-01-31T05:10:08.560Z,22.7
2019-01-31T05:15:14.735Z,22.7
2019-01-31T05:20:19.909Z,22.8
2019-01-31T05:25:25.105Z,22.8
2019-01-31T05:30:31.185Z,22.8
2019-01-31T05:35:37.575Z,22.9
2019-01-31T05:40:56.104Z,22.9
2019-01-31T05:45:51.493Z,22.9
2019-01-31T05:50:56.816Z,23
2019-01-31T05:56:02.651Z,23
2019-01-31T06:01:08.352Z,23
2019-01-31T06:06:14.332Z,23.1
2019-01-31T06:11:19.544Z,21.2
2019-01-31T06:16:25.386Z,21.8
2019-01-31T06:21:31.349Z,22.1
2019-01-31T06:26:37.229Z,22.1
2019-01-31T06:31:42.792Z,22.2
2019-01-31T06:36:49.315Z,22.4
2019-01-31T06:41:54.589Z,22.4
2019-01-31T06:46:59.955Z,22.6
2019-01-31T06:52:05.016Z,22.7
2019-01-31T06:57:10.980Z,22.7
2019-01-31T07:02:16.691Z,22.9
2019-01-31T07:07:22.988Z,23
2019-01-31T07:12:29.208Z,22.9
2019-01-31T07:17:35.323Z,23
2019-01-31T07:22:40.705Z,23.1
2019-01-31T07:27:46.527Z,23.2
2019-01-31T07:32:50.980Z,23.2
2019-01-31T07:37:56.966Z,23.2
2019-01-31T07:43:02.918Z,23.3
2019-01-31T07:48:08.903Z,23.3
2019-01-31T07:53:14.879Z,23.3
2019-01-31T08:03:25.307Z,23.3
2019-01-31T08:08:30.759Z,23.4
2019-01-31T08:13:36.636Z,23.4
2019-01-31T08:18:42.137Z,23.4
2019-01-31T08:23:47.481Z,23.4
2019-01-31T08:28:53.388Z,23.4
2019-01-31T08:33:58.827Z,23.4
2019-01-31T08:39:04.508Z,23.4
2019-01-31T08:44:09.752Z,23.4
2019-01-31T08:49:14.961Z,23.4
2019-01-31T08:54:20.097Z,23.4
2019-01-31T08:59:25.256Z,23.4
2019-01-31T09:04:30.265Z,23.3
2019-01-31T09:09:36.004Z,23.4
2019-01-31T09:14:40.958Z,23.4
2019-01-31T09:19:46.175Z,23.4
2019-01-31T09:24:51.913Z,23.5
2019-01-31T09:30:02.452Z,23.5
2019-01-31T09:34:58.058Z,23.5
2019-01-31T09:40:03.125Z,23.5
2019-01-31T09:45:08.527Z,23.5
2019-01-31T09:50:12.998Z,23.5
2019-01-31T09:55:16.443Z,23.6
2019-01-31T10:00:29.370Z,23.5
2019-01-31T10:05:24.718Z,23.5
2019-01-31T10:10:30.027Z,23.5
2019-01-31T10:15:36.458Z,23.5
2019-01-31T10:20:41.179Z,23.5
2019-01-31T10:25:46.956Z,23.5
2019-01-31T10:30:52.349Z,23.6
2019-01-31T10:35:57.883Z,23.6
2019-01-31T10:41:03.231Z,23.5
2019-01-31T10:46:08.891Z,23.5
2019-01-31T10:51:14.992Z,23.5
2019-01-31T10:56:20.029Z,23.6
2019-01-31T11:01:25.901Z,23.5
2019-01-31T11:06:31.089Z,23.5
2019-01-31T11:11:37.221Z,23.5
2019-01-31T11:16:42.952Z,23.5
2019-01-31T11:21:48.704Z,23.5
2019-01-31T11:26:53.629Z,23.4
2019-01-31T11:32:02.094Z,23.4
2019-01-31T11:37:07.324Z,23.4
2019-01-31T11:42:12.779Z,23.4
2019-01-31T11:47:18.138Z,23.4
2019-01-31T11:52:23.817Z,23.3
2019-01-31T11:57:28.993Z,23.3
2019-01-31T12:02:34.677Z,23.3
2019-01-31T12:07:40.217Z,23.3
2019-01-31T12:12:45.591Z,23.3
2019-01-31T12:17:50.930Z,23.3
2019-01-31T12:22:55.067Z,23.4
2019-01-31T12:28:01.032Z,23.4
2019-01-31T12:33:07.961Z,23.5
2019-01-31T12:38:13.115Z,23.5
2019-01-31T12:48:23.708Z,23.5
2019-01-31T12:53:28.925Z,23.5
2019-01-31T12:58:35.655Z,23.5
2019-01-31T13:03:40.100Z,23.5
2019-01-31T13:08:46.002Z,23.5
2019-01-31T13:13:51.884Z,23.5
2019-01-31T13:18:58.034Z,23.5
2019-01-31T13:24:05.636Z,23.5
2019-01-31T13:29:11.673Z,23.5
2019-01-31T13:34:17.437Z,23.5
2019-01-31T13:39:23.833Z,23.4
2019-01-31T13:44:29.441Z,23.4
2019-01-31T13:49:38.653Z,23.4
2019-01-31T13:54:44.321Z,23.3
2019-01-31T13:59:50.144Z,23.3
2019-01-31T14:04:56.731Z,23.3
2019-01-31T14:10:02.567Z,23.3
2019-01-31T14:15:08.716Z,23.3
2019-01-31T14:20:14.194Z,23.3
2019-01-31T14:25:20.034Z,23.2
2019-01-31T14:30:25.929Z,23.3
2019-01-31T14:35:32.323Z,23.2
2019-01-31T14:40:37.621Z,23.2
2019-01-31T14:45:43.326Z,23.3
2019-01-31T14:50:48.528Z,23.2
2019-01-31T14:55:57.400Z,23.3
2019-01-31T15:01:02.814Z,23.2
2019-01-31T15:06:10.149Z,23.3
2019-01-31T15:11:15.952Z,23.3
2019-01-31T15:16:22.245Z,23.3
2019-01-31T15:21:31.578Z,23.3
2019-01-31T15:31:35.796Z,23.3
2019-01-31T15:36:37.146Z,23.3
2019-01-31T15:41:41.777Z,23.3
2019-01-31T15:46:47.492Z,23.3
2019-01-31T15:51:52.510Z,23.3
2019-01-31T15:56:57.712Z,23.3
2019-01-31T16:02:03.742Z,23.4
2019-01-31T16:07:06.731Z,23.4
2019-01-31T16:12:11.597Z,23.4
2019-01-31T16:17:11.833Z,23.4
2019-01-31T16:22:16.758Z,23.4
2019-01-31T16:27:22.255Z,23.4
2019-01-31T16:32:27.959Z,23.4
2019-01-31T16:37:32.501Z,23.4
2019-01-31T16:42:38.194Z,23.4
2019-01-31T16:47:44.194Z,23.4
2019-01-31T16:52:50.141Z,23.5
2019-01-31T16:57:55.978Z,23.5
2019-01-31T17:03:01.169Z,23.5
2019-01-31T17:08:07.612Z,23.5
2019-01-31T17:18:17.571Z,23.6
2019-01-31T17:23:23.720Z,23.5
2019-01-31T17:28:29.370Z,23.6
2019-01-31T17:33:35.272Z,23.6
2019-01-31T17:38:41.582Z,23.6
2019-01-31T17:43:50.042Z,23.7
2019-01-31T17:48:55.747Z,23.7
2019-01-31T17:54:03.465Z,23.7
2019-01-31T17:59:07.512Z,23.8
2019-01-31T18:04:13.489Z,23.8
2019-01-31T18:09:19.550Z,23.8
2019-01-31T18:14:24.824Z,23.8
2019-01-31T18:19:31.269Z,23.8
2019-01-31T18:24:36.335Z,23.7
2019-01-31T18:29:42.323Z,23.7
2019-01-31T18:34:48.337Z,23.6
2019-01-31T18:39:54.329Z,23.6
2019-01-31T18:44:59.921Z,23.6
2019-01-31T18:50:05.904Z,23.6
2019-01-31T19:00:15.440Z,23.5
2019-01-31T19:05:21.081Z,22.5
2019-01-31T19:10:26.608Z,20.6
2019-01-31T19:15:31.813Z,21.1
2019-01-31T19:20:36.874Z,21.7
2019-01-31T19:25:42.049Z,22
2019-01-31T19:30:47.259Z,22.2
2019-01-31T19:35:52.912Z,22.3
2019-01-31T19:40:58.428Z,22.5
2019-01-31T19:46:03.957Z,22.5
2019-01-31T19:51:12.235Z,22.7
2019-01-31T19:56:18.103Z,22.8
2019-01-31T20:01:24.302Z,22.8
2019-01-31T20:06:29.334Z,22.9
2019-01-31T20:11:35.072Z,22.9
2019-01-31T20:16:40.912Z,23
2019-01-31T20:21:46.379Z,23
2019-01-31T20:26:52.073Z,23.1
2019-01-31T20:31:56.510Z,23.2
2019-01-31T20:37:01.871Z,23.2
2019-01-31T20:42:06.975Z,23.2
2019-01-31T20:47:17.751Z,23.2
2019-01-31T20:52:23.519Z,23.2
2019-01-31T20:57:29.185Z,23.3
2019-01-31T21:02:34.650Z,23.3
2019-01-31T21:07:39.911Z,23.3
2019-01-31T21:12:43.866Z,23.3
2019-01-31T21:17:50.045Z,23.3
2019-01-31T21:22:55.206Z,23.4
2019-01-31T21:28:00.680Z,23.3
2019-01-31T21:33:06.692Z,23.4
2019-01-31T21:38:12.269Z,23.4
2019-01-31T21:43:18.689Z,23.3
2019-01-31T21:48:30.177Z,23.3
2019-01-31T21:53:37.546Z,23.4
2019-01-31T21:58:43.287Z,23.4
2019-01-31T22:03:49.056Z,23.4
2019-01-31T22:08:54.230Z,23.4
2019-01-31T22:13:59.849Z,23.5
2019-01-31T22:19:05.565Z,23.4
2019-01-31T22:24:10.755Z,23.5
2019-01-31T22:29:16.106Z,23.4
2019-01-31T22:34:21.621Z,23.4
2019-01-31T22:39:27.778Z,23.3
2019-01-31T22:44:33.509Z,23.3
2019-01-31T22:49:39.136Z,23.3
2019-01-31T22:54:45.357Z,23.3
2019-01-31T22:59:50.767Z,23.3
2019-01-31T23:04:55.878Z,23.4
2019-01-31T23:10:01.106Z,23.3
2019-01-31T23:15:06.515Z,23.3
2019-01-31T23:20:11.849Z,23.3
2019-01-31T23:25:17.575Z,23.2
2019-01-31T23:30:23.271Z,23.2
2019-01-31T23:35:28.807Z,23.2
2019-01-31T23:40:33.723Z,23.2
2019-01-31T23:45:39.305Z,23.2
2019-01-31T23:50:44.327Z,23.2
2019-01-31T23:55:50.226Z,23.2
